Latest Weather Observations for Melbourne Airport

IDV60901

Issued at 8:11 am EST Tuesday 23 April 2024 (issued every 10 minutes, with the page automatically refreshed every 10 minutes)

About weather observations | Map of Melbourne area stations | Latest observations for Melbourne area | Other Formats
Station Details ID: 086282 Name: MELBOURNE AIRPORT Lat: -37.67 Lon: 144.83 Height: 113.4 m
Data from the previous 72 hours. | See also: Recent months at Melbourne Airport
Date/Time
EST
Temp
°C
App
Temp
°C
Dew
Point
°C
Rel
Hum
%
Delta-T
°C
Wind Press
QNH
hPa
Press
MSL
hPa
Rain since
9am
mm
Dir  Spd
km/h
Gust
km/h
Spd
kts
Gust
kts
23/08:00am 15.9 7.7 4.9 48 5.2 N 37 50 20 27 1020.8 1020.7 0.0
23/07:30am 15.1 6.5 4.5 49 5.0 N 39 52 21 28 1020.4 1020.3 0.0
23/07:00am 15.1 6.1 4.5 49 4.9 N 41 54 22 29 1019.9 1019.8 0.0
23/06:30am 14.9 5.8 4.0 48 5.0 N 41 52 22 28 1020.0 1019.9 0.0
23/06:00am 14.9 5.4 3.7 47 5.1 N 43 56 23 30 1019.7 1019.6 0.0
23/05:30am 14.9 7.4 3.7 47 5.1 N 32 57 17 31 1020.3 1020.2 0.0
23/05:00am 14.6 6.5 3.4 47 5.1 N 35 44 19 24 1020.0 1019.9 0.0
23/04:30am 15.1 5.5 3.6 46 5.3 N 43 54 23 29 1019.5 1019.4 0.0
23/04:00am 14.9 5.7 3.4 46 5.2 N 41 52 22 28 1019.6 1019.5 0.0
23/03:30am 15.2 7.2 3.7 46 5.3 N 35 44 19 24 1019.9 1019.8 0.0
23/03:00am 14.8 8.1 3.9 48 5.0 N 28 37 15 20 1020.2 1020.1 0.0
23/02:30am 14.5 9.4 3.9 49 4.9 N 20 30 11 16 1020.9 1020.8 0.0
23/02:00am 14.2 9.2 4.8 53 4.4 N 20 28 11 15 1021.2 1021.1 0.0
23/01:30am 14.3 9.0 5.1 54 4.3 N 22 28 12 15 1021.4 1021.3 0.0
23/01:00am 12.5 9.0 5.4 62 3.3 N 13 17 7 9 1021.7 1021.6 0.0
23/12:30am 13.0 10.3 5.4 60 3.6 NNW 9 11 5 6 1022.1 1022.0 0.0
23/12:00am 12.9 9.4 5.3 60 3.5 N 13 17 7 9 1022.5 1022.4 0.0
 
Date/Time
EST
Temp
°C
App
Temp
°C
Dew
Point
°C
Rel
Hum
%
Delta-T
°C
Wind Press
QNH
hPa
Press
MSL
hPa
Rain since
9am
mm
Dir  Spd
km/h
Gust
km/h
Spd
kts
Gust
kts
22/11:30pm 12.3 7.2 5.9 65 3.0 NNE 22 26 12 14 1022.4 1022.3 0.0
22/11:00pm 12.5 7.0 5.9 64 3.1 N 24 28 13 15 1022.7 1022.6 0.0
22/10:30pm 14.2 9.4 5.6 56 4.1 N 20 24 11 13 1022.9 1022.8 0.0
22/10:00pm 13.9 9.2 6.0 59 3.8 N 20 24 11 13 1023.2 1023.1 0.0
22/09:30pm 14.6 9.1 5.7 55 4.3 N 24 28 13 15 1023.3 1023.2 0.0
22/09:00pm 15.5 10.8 6.2 54 4.5 N 20 26 11 14 1023.2 1023.1 0.0
22/08:30pm 15.7 11.6 6.4 54 4.5 N 17 20 9 11 1023.3 1023.2 0.0
22/08:00pm 15.5 11.8 6.5 55 4.4 N 15 19 8 10 1023.4 1023.3 0.0
22/07:30pm 15.3 12.0 6.3 55 4.4 NNE 13 15 7 8 1023.5 1023.4 0.0
22/07:00pm 16.5 12.6 5.5 48 5.3 N 15 17 8 9 1023.5 1023.4 0.0
22/06:30pm 16.9 12.9 4.9 45 5.7 N 15 17 8 9 1023.5 1023.4 0.0
22/06:00pm 18.5 14.9 5.0 41 6.5 N 13 17 7 9 1023.3 1023.2 0.0
22/05:30pm 20.4 15.9 4.4 35 7.8 N 17 20 9 11 1023.1 1023.0 0.0
22/05:00pm 21.9 17.9 4.9 33 8.4 N 15 20 8 11 1023.1 1023.0 0.0
22/04:30pm 23.3 19.3 4.8 30 9.2 NNW 15 24 8 13 1023.2 1023.1 0.0
22/04:00pm 24.1 18.7 4.5 28 9.7 N 22 28 12 15 1023.3 1023.2 0.0
22/03:30pm 24.4 18.5 3.7 26 10.2 N 24 32 13 17 1023.4 1023.3 0.0
22/03:00pm 24.1 18.2 5.9 31 9.3 NNE 26 32 14 17 1023.4 1023.3 0.0
22/02:30pm 23.7 18.1 7.3 35 8.6 NNE 26 32 14 17 1023.6 1023.5 0.0
22/02:00pm 23.4 17.6 7.9 37 8.2 NNE 28 33 15 18 1023.7 1023.6 0.0
22/01:30pm 23.4 17.2 7.9 37 8.2 NNE 30 39 16 21 1023.9 1023.8 0.0
22/01:00pm 22.8 18.2 8.1 39 7.7 NNE 22 32 12 17 1024.8 1024.7 0.0
22/12:30pm 22.4 17.5 8.5 41 7.4 NNE 24 32 13 17 1025.4 1025.3 0.0
22/12:00pm 22.4 17.9 9.9 45 6.8 NNE 24 30 13 16 1026.1 1026.0 0.0
22/11:30am 21.3 18.3 9.2 46 6.5 N 15 20 8 11 1026.7 1026.6 0.0
22/11:00am 19.7 16.7 9.3 51 5.5 N 15 20 8 11 1026.9 1026.8 0.0
22/10:30am 18.4 14.8 8.4 52 5.2 N 17 22 9 12 1027.1 1027.0 0.0
22/10:00am 15.2 13.8 9.6 69 2.9 WNW 7 13 4 7 1027.5 1027.4 0.0
22/09:30am 12.5 10.9 8.2 75 2.1 W 6 11 3 6 1027.9 1027.8 0.0
22/09:00am 11.3 8.3 7.6 78 1.8 N 13 17 7 9 1028.1 1028.0 0.0
22/08:30am 10.2 7.1 7.4 83 1.3 N 13 17 7 9 1028.0 1027.9 0.0
22/08:00am 8.8 4.6 5.9 82 1.3 N 17 20 9 11 1027.8 1027.7 0.0
22/07:30am 7.4 2.8 5.7 89 0.8 N 19 26 10 14 1027.6 1027.5 0.0
22/07:00am 6.3 1.5 4.8 90 0.7 N 19 22 10 12 1027.4 1027.3 0.0
22/06:30am 6.6 2.3 5.1 90 0.7 N 17 20 9 11 1027.3 1027.2 0.0
22/06:00am 6.2 1.4 4.8 91 0.6 N 19 24 10 13 1027.3 1027.2 0.0
22/05:30am 6.6 1.7 5.2 91 0.6 N 20 24 11 13 1027.5 1027.4 0.0
22/05:00am 6.5 1.8 5.3 92 0.5 N 19 20 10 11 1027.5 1027.4 0.0
22/04:30am 6.8 2.0 5.6 92 0.5 N 20 24 11 13 1027.4 1027.3 0.0
22/04:00am 6.1 1.3 4.9 92 0.5 N 19 20 10 11 1027.3 1027.2 0.0
22/03:30am 6.0 1.0 4.8 92 0.5 N 20 24 11 13 1027.4 1027.3 0.0
22/03:00am 6.1 1.7 4.9 92 0.5 N 17 19 9 10 1027.5 1027.4 0.0
22/02:30am 7.0 2.4 5.6 91 0.6 N 19 22 10 12 1027.8 1027.7 0.0
22/02:00am 7.4 3.6 6.0 91 0.6 N 15 17 8 9 1028.3 1028.2 0.0
22/01:30am 7.7 3.6 6.3 91 0.6 N 17 19 9 10 1028.4 1028.3 0.0
22/01:00am 6.7 2.9 5.7 93 0.4 N 15 17 8 9 1028.7 1028.6 0.0
22/12:30am 6.3 3.4 4.6 89 0.7 NNW 9 11 5 6 1028.8 1028.7 0.0
22/12:00am 7.7 5.1 6.3 91 0.6 N 9 13 5 7 1029.0 1028.9 0.0
 
Date/Time
EST
Temp
°C
App
Temp
°C
Dew
Point
°C
Rel
Hum
%
Delta-T
°C
Wind Press
QNH
hPa
Press
MSL
hPa
Rain since
9am
mm
Dir  Spd
km/h
Gust
km/h
Spd
kts
Gust
kts
21/11:30pm 7.6 4.6 6.1 90 0.7 N 11 11 6 6 1029.3 1029.2 0.0
21/11:00pm 8.2 5.0 6.7 90 0.7 NNE 13 17 7 9 1029.6 1029.5 0.0
21/10:30pm 8.6 6.2 6.9 89 0.8 N 9 11 5 6 1030.0 1029.9 0.0
21/10:00pm 8.4 5.5 6.7 89 0.8 N 11 13 6 7 1029.8 1029.7 0.0
21/09:30pm 8.4 5.9 6.4 87 0.9 N 9 13 5 7 1029.9 1029.8 0.0
21/09:00pm 9.7 8.1 8.0 89 0.8 WNW 6 7 3 4 1029.9 1029.8 0.0
21/08:30pm 10.1 8.1 7.3 83 1.3 SW 7 7 4 4 1029.9 1029.8 0.0
21/08:00pm 10.6 8.9 7.5 81 1.5 SSW 6 7 3 4 1029.9 1029.8 0.0
21/07:30pm 11.3 9.5 7.8 79 1.7 SSE 7 9 4 5 1029.8 1029.7 0.0
21/07:00pm 11.8 9.5 7.5 75 2.1 SSE 9 11 5 6 1029.7 1029.6 0.0
21/06:30pm 12.0 9.4 7.7 75 2.1 SSE 11 13 6 7 1029.5 1029.4 0.0
21/06:00pm 12.3 10.0 7.6 73 2.3 S 9 13 5 7 1029.3 1029.2 0.0
21/05:30pm 13.8 11.2 7.8 67 3.0 S 11 15 6 8 1029.1 1029.0 0.0
21/05:00pm 14.8 11.8 7.8 63 3.5 S 13 17 7 9 1029.0 1028.9 0.0
21/04:30pm 15.1 11.7 7.6 61 3.7 S 15 22 8 12 1029.0 1028.9 0.0
21/04:00pm 15.6 11.6 8.1 61 3.8 S 19 24 10 13 1029.1 1029.0 0.0
21/03:30pm 16.0 11.9 7.7 58 4.2 S 19 26 10 14 1029.0 1028.9 0.0
21/03:00pm 17.2 14.5 7.5 53 4.9 SSE 11 19 6 10 1028.9 1028.8 0.0
21/02:30pm 16.9 14.6 7.3 53 4.8 SSW 9 17 5 9 1029.2 1029.1 0.0
21/02:00pm 16.6 14.5 8.1 57 4.3 SE 9 17 5 9 1029.4 1029.3 0.0
21/01:30pm 16.4 14.6 7.9 57 4.3 SSE 7 13 4 7 1029.7 1029.6 0.0
21/01:00pm 16.6 14.6 8.6 59 4.1 SW 9 13 5 7 1030.0 1029.9 0.0
21/12:30pm 15.7 14.0 8.4 62 3.7 SE 7 11 4 6 1030.6 1030.5 0.0
21/12:00pm 15.0 13.0 8.5 65 3.3 SW 9 15 5 8 1031.3 1031.2 0.0
21/11:30am 15.6 14.4 9.5 67 3.2 SSW 6 13 3 7 1031.7 1031.7 0.0
21/11:00am 13.8 11.3 8.0 68 2.9 SE 11 15 6 8 1031.9 1031.9 0.0
21/10:30am 13.3 10.2 7.3 67 2.9 SSW 13 17 7 9 1031.9 1031.9 0.0
21/10:00am 13.4 11.6 7.8 69 2.8 SW 7 15 4 8 1031.9 1031.9 0.0
21/09:30am 12.9 10.4 8.0 72 2.4 S 11 15 6 8 1031.8 1031.8 0.0
21/09:00am 12.6 11.0 7.9 73 2.3 W 6 9 3 5 1031.7 1031.7 0.0
21/08:30am 12.0 9.8 7.7 75 2.1 NW 9 13 5 7 1031.3 1031.2 0.0
21/08:00am 11.3 9.5 8.0 80 1.6 N 7 7 4 4 1031.5 1031.5 0.0
21/07:30am 9.9 7.7 7.8 87 1.0 NNE 9 9 5 5 1030.9 1030.8 0.0
21/07:00am 10.5 9.3 7.9 84 1.3 NNW 4 9 2 5 1030.9 1030.8 0.0
21/06:30am 10.4 9.8 7.5 82 1.4 CALM 0 0 0 0 1030.7 1030.6 0.0
21/06:00am 9.6 9.1 7.7 88 0.9 CALM 0 0 0 0 1030.7 1030.6 0.0
21/05:30am 9.2 8.6 7.2 87 0.9 CALM 0 0 0 0 1030.0 1029.9 0.0
21/05:00am 10.9 10.4 8.0 82 1.4 CALM 0 0 0 0 1030.1 1030.0 0.0
21/04:30am 11.0 10.6 8.1 82 1.4 CALM 0 0 0 0 1030.1 1030.0 0.0
21/04:00am 11.0 10.6 8.1 82 1.4 CALM 0 0 0 0 1030.1 1030.0 0.0
21/03:30am 10.8 8.7 8.2 84 1.3 WNW 9 11 5 6 1030.4 1030.3 0.0
21/03:00am 10.7 9.0 8.3 85 1.2 WNW 7 9 4 5 1030.5 1030.4 0.0
21/02:30am 10.6 10.1 8.0 84 1.3 CALM 0 0 0 0 1030.7 1030.6 0.0
21/02:00am 10.4 9.2 8.2 86 1.1 NW 4 7 2 4 1030.8 1030.7 0.0
21/01:30am 10.0 8.2 8.1 88 0.9 N 7 9 4 5 1030.8 1030.7 0.0
21/01:00am 10.1 8.5 7.9 86 1.1 NW 6 7 3 4 1030.8 1030.7 0.0
21/12:30am 9.8 7.6 7.9 88 0.9 WNW 9 9 5 5 1030.8 1030.7 0.0
21/12:00am 9.6 7.4 7.7 88 0.9 WNW 9 11 5 6 1030.9 1030.8 0.0
 
Date/Time
EST
Temp
°C
App
Temp
°C
Dew
Point
°C
Rel
Hum
%
Delta-T
°C
Wind Press
QNH
hPa
Press
MSL
hPa
Rain since
9am
mm
Dir  Spd
km/h
Gust
km/h
Spd
kts
Gust
kts
20/11:30pm 10.1 7.9 8.0 87 1.0 WNW 9 11 5 6 1031.0 1030.9 0.0
20/11:00pm 10.1 8.0 8.4 89 0.8 WNW 9 9 5 5 1031.1 1031.0 0.0
20/10:30pm 8.9 7.1 7.8 93 0.5 NNW 7 9 4 5 1031.2 1031.1 0.0
20/10:00pm 8.1 6.5 6.4 89 0.8 ENE 4 9 2 5 1031.3 1031.2 0.0
20/09:30pm 8.9 6.4 6.7 86 1.0 W 9 9 5 5 1031.3 1031.2 0.0
20/09:00pm 9.1 7.0 6.7 85 1.1 W 7 9 4 5 1031.2 1031.1 0.0
20/08:30pm 9.5 7.1 7.1 85 1.1 W 9 9 5 5 1031.2 1031.1 0.0
20/08:00pm 10.1 8.2 7.7 85 1.1 WSW 7 7 4 4 1031.3 1031.2 0.0
20/07:30pm 11.2 10.6 7.5 78 1.8 CALM 0 0 0 0 1031.2 1031.1 0.0
20/07:00pm 10.9 8.9 7.0 77 1.8 SSW 7 9 4 5 1031.2 1031.1 0.0
20/06:30pm 11.5 9.2 7.4 76 2.0 S 9 11 5 6 1030.9 1030.8 0.0
20/06:00pm 12.1 9.0 7.4 73 2.3 S 13 15 7 8 1030.8 1030.7 0.0
20/05:30pm 13.4 9.9 7.4 67 2.9 SSW 15 19 8 10 1030.5 1030.4 0.0
20/05:00pm 14.5 11.0 7.3 62 3.5 SSW 15 19 8 10 1030.3 1030.2 0.0
20/04:30pm 15.0 11.5 7.3 60 3.8 SSW 15 19 8 10 1030.0 1029.9 0.0
20/04:00pm 15.5 11.8 7.8 60 3.8 SSW 17 24 9 13 1029.8 1029.7 0.0
20/03:30pm 14.8 11.0 7.6 62 3.6 S 17 22 9 12 1029.8 1029.7 0.0
20/03:00pm 16.4 12.8 8.4 59 4.1 SSW 17 26 9 14 1029.8 1029.7 0.0
20/02:30pm 15.6 11.4 8.1 61 3.8 S 20 28 11 15 1030.0 1029.9 0.0
20/02:00pm 15.4 11.1 7.7 60 3.8 S 20 28 11 15 1030.1 1030.0 0.0
20/01:30pm 15.5 10.9 8.0 61 3.8 SSW 22 30 12 16 1030.1 1030.0 0.0
20/01:00pm 15.9 11.2 7.9 59 4.0 S 22 30 12 16 1030.5 1030.4 0.0
20/12:30pm 16.5 12.3 8.2 58 4.2 S 20 28 11 15 1030.8 1030.7 0.0
20/12:00pm 15.4 10.7 7.9 61 3.7 S 22 28 12 15 1031.1 1031.0 0.0
20/11:30am 15.0 11.9 8.7 66 3.2 S 15 22 8 12 1031.2 1031.1 0.0
20/11:00am 15.1 12.5 10.7 75 2.3 S 15 19 8 10 1031.2 1031.1 0.0
20/10:30am 14.6 12.4 10.8 78 2.0 SSW 13 19 7 10 1031.2 1031.1 0.0
20/10:00am 14.7 12.0 10.5 76 2.2 S 15 20 8 11 1031.1 1031.0 0.0
20/09:30am 14.2 11.9 10.6 79 1.9 SSW 13 17 7 9 1031.0 1030.9 0.0
20/09:00am 13.9 12.2 11.2 84 1.4 SW 11 15 6 8 1031.0 1030.9 0.8
20/08:30am 12.5 11.5 10.9 90 0.8 W 7 9 4 5 1030.6 1030.5 0.8

Latest Capital City Observations: Canberra | Sydney | Melbourne | Brisbane | Adelaide | Perth | Hobart | Darwin

Other formats

Comma delimited format used in spreadsheet applications
http://www.bom.gov.au/fwo/IDV60901/IDV60901.94866.axf

JavaScript Object Notation format (JSON) in row-major order
http://www.bom.gov.au/fwo/IDV60901/IDV60901.94866.json

Data quality

Most of these data are generated automatically and are frequently updated. Quality checks on data are not normally performed. It is possible for incorrect values to appear. Refer to information at About Latest Weather Observations and please check the disclaimer before using these data.